Time;durP1;ratioP1;P1;durP2;ratioP2;P2;SDS_P1;SDS_P2;PMS_P1;PMS_P2;Temp;Humidity;BMP_temperature;BMP_pressure;BME280_temperature;BME280_humidity;BME280_pressure;Samples;Min_cycle;Max_cycle;Signal;HPM_P1;HPM_P2
2023/11/16 00:01:28;;;;;;;;;;;;;;;9.41;73.47;98146.25;5107991;27;19927;-72
2023/11/16 00:04:17;;;;;;;;;;;;;;;9.32;73.31;98140.72;5101293;27;20072;-72
2023/11/16 00:07:07;;;;;;;;;;;;;;;9.34;73.45;98143.94;5107171;27;20457;-72
2023/11/16 00:09:57;;;;;;;;;;;;;;;9.42;73.13;98145.94;5101712;27;20020;-72
2023/11/16 00:12:46;;;;;;;;;;;;;;;9.36;73.24;98151.75;5079719;28;19927;-72
2023/11/16 00:15:35;;;;;;;;;;;;;;;9.32;73.26;98159.69;5082340;28;20308;-72
2023/11/16 00:18:23;;;;;;;;;;;;;;;9.26;73.79;98147.31;5079655;28;19928;-72
2023/11/16 00:21:12;;;;;;;;;;;;;;;9.28;73.52;98155.16;5081225;28;19948;-72
2023/11/16 00:24:00;;;;;;;;;;;;;;;9.34;73.46;98145.84;5083148;28;20392;-72
2023/11/16 00:26:50;;;;;;;;;;;;;;;9.10;74.46;98151.38;5077107;28;19930;-72
2023/11/16 00:29:40;;;;;;;;;;;;;;;9.28;74.38;98147.81;5087680;28;20291;-71
2023/11/16 00:32:28;;;;;;;;;;;;;;;9.35;73.69;98159.09;5085029;28;20361;-72
2023/11/16 00:35:17;;;;;;;;;;;;;;;9.37;73.41;98154.16;5100649;28;19932;-72
2023/11/16 00:38:06;;;;;;;;;;;;;;;9.61;72.73;98150.50;5072897;28;20060;-72
2023/11/16 00:40:55;;;;;;;;;;;;;;;9.51;73.32;98156.13;5077177;28;20416;-72
2023/11/16 00:43:43;;;;;;;;;;;;;;;9.49;73.28;98155.63;5089210;28;19919;-72
2023/11/16 00:46:33;;;;;;;;;;;;;;;9.55;73.00;98141.66;5106156;28;20389;-73
2023/11/16 00:49:23;;;;;;;;;;;;;;;9.42;72.47;98145.94;5086570;28;19924;-72
2023/11/16 00:52:11;;;;;;;;;;;;;;;9.44;72.22;98135.63;5097102;28;19936;-73
2023/11/16 00:55:00;;;;;;;;;;;;;;;9.43;72.19;98134.00;5115218;27;19928;-73
2023/11/16 00:57:50;;;;;;;;;;;;;;;9.29;73.13;98140.50;5100346;28;19920;-72
2023/11/16 01:00:38;;;;;;;;;;;;;;;9.28;73.76;98139.69;5097400;28;20080;-72
2023/11/16 01:03:28;;;;;;;;;;;;;;;9.18;74.39;98129.81;5092636;28;20377;-72
2023/11/16 01:06:17;;;;;;;;;;;;;;;9.19;74.41;98136.84;5103866;28;20281;-72
2023/11/16 01:09:06;;;;;;;;;;;;;;;9.33;74.67;98127.97;5096321;28;19962;-73
2023/11/16 01:11:56;;;;;;;;;;;;;;;9.37;74.28;98127.03;5117198;22;19968;-88
2023/11/16 01:14:44;;;;;;;;;;;;;;;9.44;74.36;98130.19;5044579;28;19924;-87
2023/11/16 01:17:36;;;;;;;;;;;;;;;9.45;74.10;98137.22;5045549;28;19940;-89
2023/11/16 01:20:29;;;;;;;;;;;;;;;9.47;74.38;98144.25;5043997;28;19951;-90
2023/11/16 01:23:19;;;;;;;;;;;;;;;9.41;74.49;98143.53;5044746;28;20380;-89
2023/11/16 01:26:14;;;;;;;;;;;;;;;9.37;74.80;98145.22;5044940;28;20019;-89
2023/11/16 01:29:06;;;;;;;;;;;;;;;9.27;74.95;98134.56;5038298;28;20015;-89
2023/11/16 01:31:55;;;;;;;;;;;;;;;9.47;74.86;98133.41;5056619;28;20303;-88
2023/11/16 01:34:44;;;;;;;;;;;;;;;9.27;75.50;98129.97;5047149;28;19924;-88
2023/11/16 01:37:35;;;;;;;;;;;;;;;9.40;75.87;98126.47;5044540;28;19936;-88
2023/11/16 01:40:24;;;;;;;;;;;;;;;9.26;76.07;98130.22;5051594;28;21421;-89
2023/11/16 01:43:12;;;;;;;;;;;;;;;9.32;75.87;98132.59;5051041;28;19924;-89
2023/11/16 01:46:05;;;;;;;;;;;;;;;9.32;75.91;98135.28;5047425;28;19925;-89
2023/11/16 01:48:54;;;;;;;;;;;;;;;9.19;76.13;98136.03;5049348;28;19928;-89
2023/11/16 01:51:46;;;;;;;;;;;;;;;9.09;76.46;98138.91;5050674;28;19939;-89
2023/11/16 01:54:35;;;;;;;;;;;;;;;9.21;75.69;98131.13;5064349;28;19924;-88
2023/11/16 01:57:24;;;;;;;;;;;;;;;9.21;75.43;98131.13;5068437;28;19936;-88
2023/11/16 02:00:15;;;;;;;;;;;;;;;9.30;74.80;98129.34;5046415;28;20418;-88
2023/11/16 02:03:04;;;;;;;;;;;;;;;9.09;75.27;98139.72;5054044;28;19929;-88
2023/11/16 02:05:52;;;;;;;;;;;;;;;9.24;74.89;98129.75;5073676;28;19925;-88
2023/11/16 02:08:40;;;;;;;;;;;;;;;9.21;74.76;98128.41;5067440;28;19947;-89
2023/11/16 02:11:30;;;;;;;;;;;;;;;9.23;74.89;98126.22;5054981;28;20384;-89
2023/11/16 02:14:19;;;;;;;;;;;;;;;9.12;74.62;98132.91;5033917;28;19925;-88
2023/11/16 02:17:07;;;;;;;;;;;;;;;9.10;74.70;98122.34;5035908;28;19924;-88
2023/11/16 02:19:55;;;;;;;;;;;;;;;9.14;74.74;98130.72;5049023;28;20417;-88
2023/11/16 02:22:44;;;;;;;;;;;;;;;9.29;74.42;98119.63;5028893;28;19929;-89
2023/11/16 02:25:41;;;;;;;;;;;;;;;9.35;74.93;98120.31;5056012;28;19939;-88
2023/11/16 02:28:30;;;;;;;;;;;;;;;9.32;74.92;98127.16;5069354;28;19997;-86
2023/11/16 02:31:19;;;;;;;;;;;;;;;9.25;75.00;98125.91;5048884;28;19933;-89
2023/11/16 02:34:07;;;;;;;;;;;;;;;9.21;75.41;98128.41;5029633;28;19932;-89
2023/11/16 02:36:55;;;;;;;;;;;;;;;9.25;75.21;98125.91;5049541;28;19932;-89
2023/11/16 02:39:44;;;;;;;;;;;;;;;9.22;75.51;98119.19;5050126;28;19931;-88
2023/11/16 02:42:35;;;;;;;;;;;;;;;9.17;75.62;98138.25;5048969;28;20414;-90
2023/11/16 02:45:24;;;;;;;;;;;;;;;9.14;75.92;98125.28;5052942;28;19924;-88
2023/11/16 02:48:13;;;;;;;;;;;;;;;9.16;76.16;98123.91;5034372;28;19996;-88
2023/11/16 02:51:01;;;;;;;;;;;;;;;9.18;76.24;98126.31;5052960;28;20030;-89
2023/11/16 02:53:51;;;;;;;;;;;;;;;9.19;76.02;98122.50;5038143;28;20015;-89
2023/11/16 02:56:39;;;;;;;;;;;;;;;9.15;76.41;98118.75;5031639;28;19933;-89
2023/11/16 02:59:31;;;;;;;;;;;;;;;9.08;76.45;98118.34;5052225;28;19925;-90
2023/11/16 03:02:19;;;;;;;;;;;;;;;9.12;76.39;98117.47;5038114;28;19925;-89
2023/11/16 03:05:09;;;;;;;;;;;;;;;9.15;75.97;98116.03;5033162;28;20304;-88
2023/11/16 03:07:58;;;;;;;;;;;;;;;9.06;76.50;98123.28;5029738;28;20296;-89
2023/11/16 03:10:48;;;;;;;;;;;;;;;9.12;76.15;98103.91;5047723;28;19939;-88
2023/11/16 03:13:36;;;;;;;;;;;;;;;9.20;76.32;98107.84;5050494;28;19932;-89
2023/11/16 03:16:26;;;;;;;;;;;;;;;9.13;76.85;98108.22;5035183;28;19925;-89
2023/11/16 03:19:14;;;;;;;;;;;;;;;9.24;76.11;98113.47;5052907;28;19924;-89
2023/11/16 03:22:03;;;;;;;;;;;;;;;9.28;75.60;98104.44;5030580;28;19925;-90
2023/11/16 03:24:52;;;;;;;;;;;;;;;9.30;75.13;98107.66;5037770;28;19929;-88
2023/11/16 03:27:41;;;;;;;;;;;;;;;9.30;75.09;98106.84;5045351;28;20681;-88
2023/11/16 03:30:29;;;;;;;;;;;;;;;9.30;74.92;98107.66;5028075;28;19925;-89
2023/11/16 03:33:19;;;;;;;;;;;;;;;9.32;74.96;98108.19;5042489;28;21572;-89
2023/11/16 03:36:08;;;;;;;;;;;;;;;9.19;75.48;98117.06;5046495;28;20285;-89
2023/11/16 03:38:56;;;;;;;;;;;;;;;9.38;74.97;98119.75;5048722;28;20331;-88
2023/11/16 03:41:44;;;;;;;;;;;;;;;9.40;74.65;98112.09;5033806;28;19975;-89
2023/11/16 03:44:32;;;;;;;;;;;;;;;9.42;74.81;98126.97;5032697;28;19935;-88
2023/11/16 03:47:21;;;;;;;;;;;;;;;9.51;74.52;98124.38;5026751;28;19991;-89
2023/11/16 03:50:11;;;;;;;;;;;;;;;9.48;74.22;98126.88;5047620;28;19932;-89
2023/11/16 03:52:59;;;;;;;;;;;;;;;9.17;74.45;98119.28;5044098;28;20451;-89
2023/11/16 03:55:47;;;;;;;;;;;;;;;9.26;74.56;98122.09;5035574;28;20067;-89
2023/11/16 03:58:35;;;;;;;;;;;;;;;9.17;75.60;98108.44;5028923;28;20038;-89
2023/11/16 04:01:24;;;;;;;;;;;;;;;9.30;74.80;98107.66;5049535;28;19925;-88
2023/11/16 04:04:12;;;;;;;;;;;;;;;9.31;74.46;98103.84;5046913;28;19940;-89
2023/11/16 04:07:02;;;;;;;;;;;;;;;9.33;74.17;98096.22;5051334;28;20011;-89
2023/11/16 04:09:51;;;;;;;;;;;;;;;9.39;73.41;98099.66;5032321;28;19931;-88
2023/11/16 04:12:41;;;;;;;;;;;;;;;9.50;72.89;98106.50;5047881;28;19928;-90
2023/11/16 04:15:29;;;;;;;;;;;;;;;9.42;73.61;98102.56;5052846;28;19924;-89
2023/11/16 04:18:17;;;;;;;;;;;;;;;9.47;72.98;98103.56;5070515;28;19924;-89
2023/11/16 04:21:07;;;;;;;;;;;;;;;9.43;73.16;98106.09;5051157;28;19932;-88
2023/11/16 04:23:57;;;;;;;;;;;;;;;9.47;72.93;98106.28;5064176;28;19931;-89
2023/11/16 04:26:48;;;;;;;;;;;;;;;9.44;72.74;98103.06;5053366;28;19947;-90
2023/11/16 04:29:38;;;;;;;;;;;;;;;9.36;72.91;98094.81;5051488;28;19974;-89
2023/11/16 04:32:26;;;;;;;;;;;;;;;9.37;73.25;98085.56;5055416;28;19924;-90
2023/11/16 04:35:15;;;;;;;;;;;;;;;9.16;74.16;98074.28;5069071;28;19924;-89
2023/11/16 04:38:04;;;;;;;;;;;;;;;9.05;74.94;98075.56;5051833;28;19925;-89
2023/11/16 04:40:54;;;;;;;;;;;;;;;9.11;74.21;98079.81;5052868;28;19930;-88
2023/11/16 04:43:45;;;;;;;;;;;;;;;9.17;73.73;98081.34;5064433;28;19925;-89
2023/11/16 04:46:33;;;;;;;;;;;;;;;8.58;75.85;98080.13;5053759;28;19928;-87
2023/11/16 04:49:21;;;;;;;;;;;;;;;8.84;74.99;98088.63;5051830;28;20372;-87
2023/11/16 04:52:10;;;;;;;;;;;;;;;8.91;74.58;98084.47;5064286;28;19925;-87
2023/11/16 04:54:59;;;;;;;;;;;;;;;8.96;73.92;98080.06;5068061;28;19924;-89
2023/11/16 04:57:49;;;;;;;;;;;;;;;8.94;73.81;98074.94;5060871;28;19932;-89
2023/11/16 05:00:37;;;;;;;;;;;;;;;8.93;73.70;98081.44;5064484;28;19932;-88
2023/11/16 05:03:25;;;;;;;;;;;;;;;9.01;72.95;98066.44;5044369;28;19932;-88
2023/11/16 05:06:14;;;;;;;;;;;;;;;9.00;72.95;98070.22;5068014;28;19932;-88
2023/11/16 05:09:04;;;;;;;;;;;;;;;9.02;71.63;98071.56;5071122;28;19932;-88
2023/11/16 05:11:54;;;;;;;;;;;;;;;9.07;71.68;98071.47;5072260;28;20409;-88
2023/11/16 05:14:44;;;;;;;;;;;;;;;9.09;71.62;98073.88;5069115;28;19946;-89
2023/11/16 05:17:32;;;;;;;;;;;;;;;9.17;70.70;98070.50;5070412;28;20447;-88
2023/11/16 05:20:20;;;;;;;;;;;;;;;9.26;69.91;98074.09;5054016;28;20299;-89
2023/11/16 05:23:09;;;;;;;;;;;;;;;9.29;69.74;98073.53;5054466;28;19924;-90
2023/11/16 05:25:57;;;;;;;;;;;;;;;9.32;69.14;98067.50;5050128;28;19925;-82
2023/11/16 05:28:45;;;;;;;;;;;;;;;9.28;69.33;98071.91;5056615;28;19932;-89
2023/11/16 05:31:35;;;;;;;;;;;;;;;9.28;69.37;98066.50;5056233;28;19932;-91
2023/11/16 05:34:23;;;;;;;;;;;;;;;9.22;70.01;98073.13;5057359;28;19932;-90
2023/11/16 05:37:14;;;;;;;;;;;;;;;9.26;69.37;98067.88;5057413;28;20287;-87
2023/11/16 05:40:05;;;;;;;;;;;;;;;8.63;71.18;98064.59;5065812;28;19933;-88
2023/11/16 05:42:54;;;;;;;;;;;;;;;8.88;71.43;98065.28;5060299;28;19924;-90
2023/11/16 05:45:42;;;;;;;;;;;;;;;8.97;70.79;98073.53;5071619;28;20268;-76
2023/11/16 05:48:32;;;;;;;;;;;;;;;8.96;70.53;98058.41;5046236;28;19929;-80
2023/11/16 05:51:20;;;;;;;;;;;;;;;8.98;70.28;98065.13;5054611;28;19924;-85
2023/11/16 05:54:10;;;;;;;;;;;;;;;8.98;70.12;98062.41;5057659;28;20299;-81
2023/11/16 05:56:58;;;;;;;;;;;;;;;9.10;70.18;98054.59;5058972;28;20383;-84
2023/11/16 05:59:46;;;;;;;;;;;;;;;8.75;70.36;98047.09;5069147;28;19971;-82
2023/11/16 06:02:35;;;;;;;;;;;;;;;9.08;70.03;98050.59;5054295;28;19925;-86
2023/11/16 06:05:24;;;;;;;;;;;;;;;9.12;69.67;98046.19;5048127;28;19947;-88
2023/11/16 06:08:13;;;;;;;;;;;;;;;9.14;69.42;98050.19;5044899;28;20389;-86
2023/11/16 06:11:01;;;;;;;;;;;;;;;8.95;69.94;98041.34;5059353;28;20303;-88
2023/11/16 06:13:50;;;;;;;;;;;;;;;9.00;70.20;98037.72;5064771;28;19936;-89
2023/11/16 06:16:43;;;;;;;;;;;;;;;8.49;71.66;98039.34;5069901;28;19924;-87
2023/11/16 06:19:33;;;;;;;;;;;;;;;8.79;71.02;98032.66;5073023;28;19932;-85
2023/11/16 06:22:23;;;;;;;;;;;;;;;8.82;70.89;98036.66;5062132;28;19931;-87
2023/11/16 06:25:12;;;;;;;;;;;;;;;8.87;70.56;98045.50;5070670;28;20399;-88
2023/11/16 06:28:00;;;;;;;;;;;;;;;8.76;70.97;98035.16;5067880;28;20020;-88
2023/11/16 06:30:48;;;;;;;;;;;;;;;8.61;71.46;98025.38;5068075;28;19932;-87
2023/11/16 06:33:38;;;;;;;;;;;;;;;8.61;71.42;98011.81;5051847;28;19979;-87
2023/11/16 06:36:26;;;;;;;;;;;;;;;8.76;70.38;98006.16;5065574;28;19942;-87
2023/11/16 06:39:17;;;;;;;;;;;;;;;8.75;71.33;98012.69;5069660;28;19933;-83
2023/11/16 06:42:06;;;;;;;;;;;;;;;8.79;70.97;98027.25;5068283;28;19947;-83
2023/11/16 06:44:56;;;;;;;;;;;;;;;8.75;70.55;98037.06;5056666;28;19925;-82
2023/11/16 06:47:45;;;;;;;;;;;;;;;8.71;71.18;98038.75;5060030;28;20354;-84
2023/11/16 06:50:34;;;;;;;;;;;;;;;8.81;70.82;98025.03;5063755;28;19925;-82
2023/11/16 06:53:22;;;;;;;;;;;;;;;8.94;70.67;98023.44;5070211;28;20007;-88
2023/11/16 06:56:12;;;;;;;;;;;;;;;8.79;71.28;98031.84;5073387;28;19930;-85
2023/11/16 06:59:00;;;;;;;;;;;;;;;9.00;70.63;98019.56;5089918;28;19991;-85
2023/11/16 07:01:48;;;;;;;;;;;;;;;9.01;70.56;98012.25;5073538;28;19925;-85
2023/11/16 07:04:36;;;;;;;;;;;;;;;9.15;69.26;98008.44;5071870;28;19936;-86
2023/11/16 07:07:28;;;;;;;;;;;;;;;9.24;69.42;98016.69;5065606;28;20391;-83
2023/11/16 07:10:16;;;;;;;;;;;;;;;9.10;68.86;98013.13;5064660;28;19932;-85
2023/11/16 07:13:06;;;;;;;;;;;;;;;8.80;71.13;98023.44;5071267;28;19971;-86
2023/11/16 07:15:56;;;;;;;;;;;;;;;8.97;70.61;98008.50;5061206;28;20027;-83
2023/11/16 07:18:47;;;;;;;;;;;;;;;8.97;70.40;98013.94;5058124;28;19931;-85
2023/11/16 07:21:36;;;;;;;;;;;;;;;9.13;70.23;98007.13;5056238;28;19924;-85
2023/11/16 07:24:24;;;;;;;;;;;;;;;9.16;69.70;98020.06;5073061;28;19971;-84
2023/11/16 07:27:13;;;;;;;;;;;;;;;9.25;69.68;98012.88;5066664;28;20061;-82
2023/11/16 07:30:04;;;;;;;;;;;;;;;9.27;69.03;98012.56;5072242;28;20069;-90
2023/11/16 07:32:57;;;;;;;;;;;;;;;9.23;69.67;98023.22;5050365;28;20987;-89
2023/11/16 07:35:46;;;;;;;;;;;;;;;9.21;69.77;98019.97;5057635;28;20058;-87
2023/11/16 07:38:35;;;;;;;;;;;;;;;9.25;69.08;98017.47;5063628;28;20384;-88
2023/11/16 07:41:23;;;;;;;;;;;;;;;9.11;69.31;98017.47;5043048;28;20011;-88
2023/11/16 07:44:17;;;;;;;;;;;;;;;9.09;69.71;98019.66;5053359;28;19925;-87
2023/11/16 07:47:08;;;;;;;;;;;;;;;9.14;69.89;98022.28;5043100;28;19931;-91
2023/11/16 07:49:58;;;;;;;;;;;;;;;9.23;70.10;98028.63;5058996;28;20387;-91
2023/11/16 07:52:47;;;;;;;;;;;;;;;9.29;70.39;98021.22;5071758;28;19928;-91
2023/11/16 07:55:36;;;;;;;;;;;;;;;9.18;70.35;98023.31;5055951;28;19924;-90
2023/11/16 07:58:24;;;;;;;;;;;;;;;8.85;71.74;98015.22;5053129;28;20410;-89
2023/11/16 08:01:12;;;;;;;;;;;;;;;8.99;71.05;98007.09;5059471;28;19986;-89
2023/11/16 08:04:01;;;;;;;;;;;;;;;9.02;70.52;98008.44;5056390;28;19925;-89
2023/11/16 08:06:50;;;;;;;;;;;;;;;9.11;70.49;98015.56;5067723;28;19932;-87
2023/11/16 08:09:39;;;;;;;;;;;;;;;9.19;70.05;98008.66;5045879;28;19933;-88
2023/11/16 08:12:27;;;;;;;;;;;;;;;9.13;69.92;97997.09;5047682;28;19924;-87
2023/11/16 08:15:16;;;;;;;;;;;;;;;9.25;70.49;97995.78;5064497;28;19924;-89
2023/11/16 08:18:05;;;;;;;;;;;;;;;9.24;70.44;97989.56;5048795;28;19925;-90
2023/11/16 08:20:55;;;;;;;;;;;;;;;9.24;70.78;97989.56;5068840;28;19924;-90
2023/11/16 08:23:45;;;;;;;;;;;;;;;9.29;70.74;97975.91;5053220;28;20007;-89
2023/11/16 08:26:38;;;;;;;;;;;;;;;9.42;70.80;97969.69;5055656;28;19924;-90
2023/11/16 08:29:26;;;;;;;;;;;;;;;9.46;70.24;97961.75;5068303;28;19932;-90
2023/11/16 08:32:14;;;;;;;;;;;;;;;9.38;71.10;97960.56;5062951;28;19976;-90
2023/11/16 08:35:03;;;;;;;;;;;;;;;9.59;70.74;97957.44;5056347;28;19924;-90
2023/11/16 08:37:54;;;;;;;;;;;;;;;9.68;70.17;97956.41;5065684;28;19924;-90
2023/11/16 08:40:44;;;;;;;;;;;;;;;9.65;70.19;97956.22;5052405;28;20030;-88
2023/11/16 08:43:32;;;;;;;;;;;;;;;9.73;69.64;97957.41;5069764;28;19925;-90
2023/11/16 08:46:24;;;;;;;;;;;;;;;9.74;69.64;97948.94;5069579;28;19925;-89
2023/11/16 08:49:12;;;;;;;;;;;;;;;9.84;69.56;97948.72;5070467;28;19924;-90
2023/11/16 08:52:01;;;;;;;;;;;;;;;9.82;69.61;97942.81;5062886;28;19931;-90
2023/11/16 08:54:50;;;;;;;;;;;;;;;9.53;69.76;97943.16;5059178;28;19948;-91
2023/11/16 08:57:40;;;;;;;;;;;;;;;9.71;69.87;97936.81;5059091;28;20395;-90
2023/11/16 09:00:33;;;;;;;;;;;;;;;9.82;69.90;97931.97;5059725;28;19935;-89
2023/11/16 09:03:22;;;;;;;;;;;;;;;9.94;69.10;97932.22;5058107;28;20295;-91
2023/11/16 09:06:15;;;;;;;;;;;;;;;9.81;69.12;97924.94;5055760;28;19924;-91
2023/11/16 09:09:09;;;;;;;;;;;;;;;9.68;68.47;97923.03;5077804;28;19990;-89
2023/11/16 09:12:03;;;;;;;;;;;;;;;9.90;68.70;97908.72;5084182;28;19946;-90
2023/11/16 09:14:51;;;;;;;;;;;;;;;9.75;68.85;97900.91;5071167;28;19924;-89
2023/11/16 09:17:42;;;;;;;;;;;;;;;10.06;68.49;97892.88;5051864;28;19928;-90
2023/11/16 09:20:33;;;;;;;;;;;;;;;10.07;67.83;97886.34;5062354;28;20019;-91
2023/11/16 09:23:24;;;;;;;;;;;;;;;10.15;67.34;97877.47;5053740;28;19932;-91
2023/11/16 09:26:13;;;;;;;;;;;;;;;10.11;67.33;97876.47;5069411;28;20389;-90
2023/11/16 09:29:02;;;;;;;;;;;;;;;10.20;66.97;97886.28;5068364;28;19924;-90
2023/11/16 09:31:55;;;;;;;;;;;;;;;10.33;66.83;97887.34;5071986;28;20372;-90
2023/11/16 09:34:43;;;;;;;;;;;;;;;10.26;67.61;97878.84;5074850;28;20471;-90
2023/11/16 09:37:32;;;;;;;;;;;;;;;10.12;66.32;97875.34;5075363;28;19932;-90
2023/11/16 09:40:21;;;;;;;;;;;;;;;10.25;65.76;97877.25;5065655;28;19932;-90
2023/11/16 09:43:17;;;;;;;;;;;;;;;10.10;67.00;97870.25;5068864;28;20311;-90
2023/11/16 09:46:08;;;;;;;;;;;;;;;10.20;66.92;97869.19;5066109;28;19925;-91
2023/11/16 09:48:58;;;;;;;;;;;;;;;10.10;67.46;97864.81;5070166;28;19950;-91
2023/11/16 09:51:51;;;;;;;;;;;;;;;9.82;67.69;97852.47;5046734;28;19925;-88
2023/11/16 09:54:39;;;;;;;;;;;;;;;9.90;67.05;97857.94;5063921;28;20466;-87
2023/11/16 09:57:28;;;;;;;;;;;;;;;10.14;66.33;97854.16;5073113;28;19925;-87
2023/11/16 10:00:18;;;;;;;;;;;;;;;10.30;66.44;97843.72;5057181;28;19932;-87
2023/11/16 10:03:07;;;;;;;;;;;;;;;10.39;65.25;97834.53;5050269;28;19924;-88
2023/11/16 10:05:57;;;;;;;;;;;;;;;10.43;64.87;97829.25;5060032;28;19925;-88
2023/11/16 10:08:46;;;;;;;;;;;;;;;10.39;63.80;97839.97;5047937;28;19964;-91
2023/11/16 10:11:34;;;;;;;;;;;;;;;10.41;64.64;97845.06;5061571;28;19932;-92
2023/11/16 10:14:23;;;;;;;;;;;;;;;10.41;64.73;97824.13;5051116;28;19933;-91
2023/11/16 10:17:11;;;;;;;;;;;;;;;10.47;64.09;97830.22;5053051;28;19925;-93
2023/11/16 10:20:01;;;;;;;;;;;;;;;10.48;63.45;97827.19;5048885;28;19925;-92
2023/11/16 10:22:49;;;;;;;;;;;;;;;10.63;63.94;97811.63;5064905;28;19924;-88
2023/11/16 10:25:38;;;;;;;;;;;;;;;10.72;63.95;97810.53;5063069;28;19925;-92
2023/11/16 10:28:26;;;;;;;;;;;;;;;10.82;64.51;97798.59;5047031;28;20043;-88
2023/11/16 10:31:16;;;;;;;;;;;;;;;10.95;64.25;97797.66;5067009;28;20015;-92
2023/11/16 10:34:04;;;;;;;;;;;;;;;11.14;62.52;97788.41;5042606;28;19943;-92
2023/11/16 10:36:55;;;;;;;;;;;;;;;11.10;61.48;97784.72;5049616;28;19928;-90
2023/11/16 10:39:44;;;;;;;;;;;;;;;11.12;62.00;97780.56;5065185;28;20295;-91
2023/11/16 10:42:34;;;;;;;;;;;;;;;10.94;60.71;97777.03;5064687;28;20264;-88
2023/11/16 10:45:23;;;;;;;;;;;;;;;10.95;62.07;97770.47;5070280;28;19932;-86
2023/11/16 10:48:13;;;;;;;;;;;;;;;11.06;62.42;97767.44;5051531;28;19935;-88
2023/11/16 10:51:02;;;;;;;;;;;;;;;11.13;62.89;97751.44;5063472;28;19924;-90
2023/11/16 10:53:52;;;;;;;;;;;;;;;10.99;61.06;97738.81;5072122;28;19947;-89
2023/11/16 10:56:41;;;;;;;;;;;;;;;11.07;62.74;97730.97;5069867;28;20074;-90
2023/11/16 10:59:32;;;;;;;;;;;;;;;10.97;62.65;97711.16;5044474;28;20443;-87
2023/11/16 11:02:20;;;;;;;;;;;;;;;11.04;63.45;97709.88;5067965;28;20017;-89
2023/11/16 11:05:10;;;;;;;;;;;;;;;11.02;62.87;97696.59;5055122;28;19925;-90
2023/11/16 11:07:58;;;;;;;;;;;;;;;10.91;62.59;97692.59;5053009;28;19924;-88
2023/11/16 11:10:48;;;;;;;;;;;;;;;10.80;62.14;97692.09;5060156;28;21239;-87
2023/11/16 11:13:39;;;;;;;;;;;;;;;10.58;62.19;97689.50;5053797;28;19932;-86
2023/11/16 11:16:28;;;;;;;;;;;;;;;10.76;62.90;97677.56;5069677;28;20015;-87
2023/11/16 11:19:25;;;;;;;;;;;;;;;10.47;62.81;97667.28;5067279;28;20765;-87
2023/11/16 11:22:15;;;;;;;;;;;;;;;10.68;63.74;97662.84;5068412;28;19936;-88
2023/11/16 11:25:05;;;;;;;;;;;;;;;10.62;62.80;97655.16;5057331;28;19931;-86
2023/11/16 11:27:55;;;;;;;;;;;;;;;10.37;63.77;97652.06;5061540;28;20020;-85
2023/11/16 11:30:54;;;;;;;;;;;;;;;10.66;63.24;97642.56;5051810;28;20050;-89
2023/11/16 11:33:42;;;;;;;;;;;;;;;10.79;63.00;97636.16;5050548;28;19990;-88
2023/11/16 11:36:32;;;;;;;;;;;;;;;10.79;63.50;97625.28;5058621;28;20334;-88
2023/11/16 11:39:26;;;;;;;;;;;;;;;10.77;63.63;97621.31;5045753;28;19929;-87
2023/11/16 11:42:16;;;;;;;;;;;;;;;10.83;62.56;97603.72;5056470;28;19932;-89
2023/11/16 11:45:08;;;;;;;;;;;;;;;10.88;62.70;97590.75;5049498;28;19932;-88
2023/11/16 11:47:58;;;;;;;;;;;;;;;10.66;63.71;97582.78;5058734;28;20408;-88
2023/11/16 11:50:46;;;;;;;;;;;;;;;10.96;63.19;97575.56;5041484;28;19932;-88
2023/11/16 11:53:35;;;;;;;;;;;;;;;10.87;61.33;97563.91;5039679;28;19931;-87
2023/11/16 11:56:23;;;;;;;;;;;;;;;10.94;60.91;97561.50;5056360;28;20383;-88
2023/11/16 11:59:14;;;;;;;;;;;;;;;10.94;61.63;97547.91;5060205;28;19928;-88
2023/11/16 12:02:08;;;;;;;;;;;;;;;10.96;61.63;97541.03;5054552;28;19924;-88
2023/11/16 12:04:56;;;;;;;;;;;;;;;10.93;61.64;97535.44;5051463;28;19924;-87
2023/11/16 12:07:44;;;;;;;;;;;;;;;10.97;61.55;97528.22;5051347;28;19931;-87
2023/11/16 12:10:33;;;;;;;;;;;;;;;10.67;61.53;97519.97;5060854;28;19978;-90
2023/11/16 12:13:21;;;;;;;;;;;;;;;10.97;62.38;97511.91;5043773;28;19991;-88
2023/11/16 12:16:12;;;;;;;;;;;;;;;10.73;63.02;97507.81;5055397;28;19924;-89
2023/11/16 12:19:08;;;;;;;;;;;;;;;10.79;63.86;97503.00;5054700;28;19968;-86
2023/11/16 12:21:56;;;;;;;;;;;;;;;10.97;62.19;97490.16;5060420;28;19994;-88
2023/11/16 12:24:45;;;;;;;;;;;;;;;10.97;61.28;97493.72;5056739;28;19933;-88
2023/11/16 12:27:39;;;;;;;;;;;;;;;10.98;60.57;97479.00;5058408;28;19924;-89
2023/11/16 12:30:29;;;;;;;;;;;;;;;11.01;60.40;97475.63;5065266;28;19925;-88
2023/11/16 12:33:18;;;;;;;;;;;;;;;10.98;60.18;97476.28;5070480;28;19931;-88
2023/11/16 12:36:07;;;;;;;;;;;;;;;11.01;59.89;97474.81;5060825;28;20281;-88
2023/11/16 12:38:55;;;;;;;;;;;;;;;11.02;60.04;97471.81;5061515;28;19932;-88
2023/11/16 12:41:43;;;;;;;;;;;;;;;11.06;60.21;97465.69;5067810;28;19924;-90
2023/11/16 12:44:31;;;;;;;;;;;;;;;11.02;60.00;97471.81;5065124;28;19924;-89
2023/11/16 12:47:19;;;;;;;;;;;;;;;10.97;60.61;97474.69;5065870;28;19924;-88
2023/11/16 12:50:11;;;;;;;;;;;;;;;11.06;59.65;97479.28;5064091;28;20372;-88
2023/11/16 12:53:00;;;;;;;;;;;;;;;10.89;59.55;97480.94;5067916;28;19994;-88
2023/11/16 12:55:48;;;;;;;;;;;;;;;10.88;60.17;97479.34;5057085;28;20319;-88
2023/11/16 12:58:37;;;;;;;;;;;;;;;10.44;62.04;97484.03;5060166;28;20046;-89
2023/11/16 13:01:25;;;;;;;;;;;;;;;10.62;61.66;97487.53;5052105;28;19967;-88
2023/11/16 13:04:14;;;;;;;;;;;;;;;10.77;61.60;97490.88;5065766;28;19925;-88
2023/11/16 13:07:03;;;;;;;;;;;;;;;10.66;62.72;97485.00;5061154;28;19929;-88
2023/11/16 13:09:55;;;;;;;;;;;;;;;10.73;62.28;97483.38;5039662;28;19929;-90
2023/11/16 13:12:44;;;;;;;;;;;;;;;10.80;62.38;97480.16;5041460;28;19924;-90
2023/11/16 13:15:33;;;;;;;;;;;;;;;10.78;61.63;97481.59;5062108;28;20067;-89
2023/11/16 13:18:24;;;;;;;;;;;;;;;10.70;61.44;97480.47;5049014;28;19925;-89
2023/11/16 13:21:13;;;;;;;;;;;;;;;10.62;60.15;97489.47;5039161;28;19936;-88
2023/11/16 13:24:01;;;;;;;;;;;;;;;10.59;62.10;97487.38;5051572;28;19924;-88
2023/11/16 13:26:53;;;;;;;;;;;;;;;10.72;61.59;97489.13;5062925;28;20002;-88
2023/11/16 13:29:43;;;;;;;;;;;;;;;10.72;61.88;97494.56;5063968;28;19924;-89
2023/11/16 13:32:31;;;;;;;;;;;;;;;10.53;60.93;97496.81;5081298;28;19939;-87
2023/11/16 13:35:21;;;;;;;;;;;;;;;10.67;61.26;97497.44;5064963;28;19936;-89
2023/11/16 13:38:12;;;;;;;;;;;;;;;10.68;61.91;97493.59;5052857;28;19932;-89
2023/11/16 13:41:00;;;;;;;;;;;;;;;10.73;61.68;97493.44;5069856;28;20396;-89
2023/11/16 13:43:51;;;;;;;;;;;;;;;10.60;61.64;97495.22;5070943;28;19924;-90
2023/11/16 13:46:39;;;;;;;;;;;;;;;10.51;61.94;97504.50;5072527;28;19991;-87
2023/11/16 13:49:29;;;;;;;;;;;;;;;10.49;62.37;97494.75;5053169;28;20471;-90
2023/11/16 13:52:18;;;;;;;;;;;;;;;10.37;62.66;97493.78;5058733;28;20003;-89
2023/11/16 13:55:07;;;;;;;;;;;;;;;10.45;62.67;97487.56;5040979;28;20008;-89
2023/11/16 13:57:54;;;;;;;;;;;;;;;10.43;61.77;97482.44;5059718;28;20025;-90
2023/11/16 14:00:44;;;;;;;;;;;;;;;10.55;61.89;97481.00;5060713;28;19925;-89
2023/11/16 14:03:33;;;;;;;;;;;;;;;10.53;61.87;97467.72;5072649;28;19925;-90
2023/11/16 14:06:23;;;;;;;;;;;;;;;10.45;60.83;97453.06;5072626;28;20335;-90
2023/11/16 14:09:13;;;;;;;;;;;;;;;10.42;61.75;97437.38;5057217;28;19932;-89
2023/11/16 14:12:01;;;;;;;;;;;;;;;10.35;62.06;97434.38;5057884;28;20021;-90
2023/11/16 14:14:50;;;;;;;;;;;;;;;10.07;62.30;97419.50;5055815;28;20329;-90
2023/11/16 14:17:39;;;;;;;;;;;;;;;10.07;62.04;97384.22;5065046;28;19924;-90
2023/11/16 14:20:28;;;;;;;;;;;;;;;10.28;63.01;97397.94;5069243;28;20011;-90
2023/11/16 14:23:16;;;;;;;;;;;;;;;10.27;62.46;97394.44;5069340;28;19998;-90
2023/11/16 14:26:09;;;;;;;;;;;;;;;10.19;62.92;97397.94;5052881;28;20307;-90
2023/11/16 14:28:58;;;;;;;;;;;;;;;10.28;62.30;97396.06;5054573;28;19981;-91
2023/11/16 14:31:47;;;;;;;;;;;;;;;9.82;63.16;97374.97;5049749;28;20005;-90
2023/11/16 14:34:37;;;;;;;;;;;;;;;10.08;63.41;97361.41;5068464;28;19929;-91
2023/11/16 14:37:26;;;;;;;;;;;;;;;10.16;63.10;97364.09;5070651;28;20011;-90
2023/11/16 14:40:14;;;;;;;;;;;;;;;10.25;62.94;97366.81;5060141;28;19928;-87
2023/11/16 14:43:03;;;;;;;;;;;;;;;10.37;63.12;97358.81;5055787;28;19929;-91
2023/11/16 14:45:51;;;;;;;;;;;;;;;10.32;63.17;97361.69;5070944;28;20368;-89
2023/11/16 14:48:39;;;;;;;;;;;;;;;10.38;63.05;97354.16;5070361;28;19925;-89